sensor_id;sensor_type;location;lat;lon;timestamp;temperature;humidity
32600;DHT22;19277;51.778;7.912;2023-04-24T00:01:29;20.40;69.50
32600;DHT22;19277;51.778;7.912;2023-04-24T00:03:55;20.50;69.30
32600;DHT22;19277;51.778;7.912;2023-04-24T00:06:25;20.50;69.30
32600;DHT22;19277;51.778;7.912;2023-04-24T00:09:02;20.50;69.40
32600;DHT22;19277;51.778;7.912;2023-04-24T00:11:28;20.50;69.40
32600;DHT22;19277;51.778;7.912;2023-04-24T00:13:54;20.60;69.40
32600;DHT22;19277;51.778;7.912;2023-04-24T00:16:20;20.60;69.40
32600;DHT22;19277;51.778;7.912;2023-04-24T00:18:46;20.60;69.30
32600;DHT22;19277;51.778;7.912;2023-04-24T00:21:13;20.70;69.40
32600;DHT22;19277;51.778;7.912;2023-04-24T00:23:39;20.70;69.20
32600;DHT22;19277;51.778;7.912;2023-04-24T00:26:04;20.70;69.20
32600;DHT22;19277;51.778;7.912;2023-04-24T00:28:30;20.70;69.20
32600;DHT22;19277;51.778;7.912;2023-04-24T00:30:56;20.70;69.20
32600;DHT22;19277;51.778;7.912;2023-04-24T00:33:21;20.80;69.20
32600;DHT22;19277;51.778;7.912;2023-04-24T00:35:47;20.80;69.20
32600;DHT22;19277;51.778;7.912;2023-04-24T00:38:12;20.80;69.20
32600;DHT22;19277;51.778;7.912;2023-04-24T00:40:38;20.80;69.20
32600;DHT22;19277;51.778;7.912;2023-04-24T00:43:04;20.80;69.70
32600;DHT22;19277;51.778;7.912;2023-04-24T00:45:29;20.80;69.20
32600;DHT22;19277;51.778;7.912;2023-04-24T00:47:57;20.80;69.20
32600;DHT22;19277;51.778;7.912;2023-04-24T00:50:23;20.90;69.30
32600;DHT22;19277;51.778;7.912;2023-04-24T00:52:49;20.90;69.30
32600;DHT22;19277;51.778;7.912;2023-04-24T00:55:15;20.90;69.30
32600;DHT22;19277;51.778;7.912;2023-04-24T00:57:41;20.90;69.20
32600;DHT22;19277;51.778;7.912;2023-04-24T01:00:07;20.90;69.30
32600;DHT22;19277;51.778;7.912;2023-04-24T01:02:36;20.90;69.80
32600;DHT22;19277;51.778;7.912;2023-04-24T01:05:06;20.90;69.80
32600;DHT22;19277;51.778;7.912;2023-04-24T01:07:32;21.00;69.30
32600;DHT22;19277;51.778;7.912;2023-04-24T01:09:58;21.00;69.40
32600;DHT22;19277;51.778;7.912;2023-04-24T01:12:24;21.00;69.40
32600;DHT22;19277;51.778;7.912;2023-04-24T01:14:50;21.00;69.40
32600;DHT22;19277;51.778;7.912;2023-04-24T01:17:16;21.00;69.50
32600;DHT22;19277;51.778;7.912;2023-04-24T01:19:42;21.00;69.40
32600;DHT22;19277;51.778;7.912;2023-04-24T01:22:14;21.00;69.40
32600;DHT22;19277;51.778;7.912;2023-04-24T01:24:40;21.00;69.80
32600;DHT22;19277;51.778;7.912;2023-04-24T01:27:06;21.10;70.00
32600;DHT22;19277;51.778;7.912;2023-04-24T01:29:32;21.10;70.00
32600;DHT22;19277;51.778;7.912;2023-04-24T01:31:59;21.10;69.80
32600;DHT22;19277;51.778;7.912;2023-04-24T01:34:25;21.10;70.00
32600;DHT22;19277;51.778;7.912;2023-04-24T01:36:51;21.10;70.20
32600;DHT22;19277;51.778;7.912;2023-04-24T01:39:17;21.10;70.10
32600;DHT22;19277;51.778;7.912;2023-04-24T01:41:43;21.10;70.10
32600;DHT22;19277;51.778;7.912;2023-04-24T01:44:09;21.10;70.30
32600;DHT22;19277;51.778;7.912;2023-04-24T01:46:35;21.20;70.20
32600;DHT22;19277;51.778;7.912;2023-04-24T01:49:01;21.10;70.10
32600;DHT22;19277;51.778;7.912;2023-04-24T01:51:27;21.20;70.30
32600;DHT22;19277;51.778;7.912;2023-04-24T01:53:52;21.20;70.40
32600;DHT22;19277;51.778;7.912;2023-04-24T01:56:21;21.20;70.50
32600;DHT22;19277;51.778;7.912;2023-04-24T01:58:48;21.20;70.60
32600;DHT22;19277;51.778;7.912;2023-04-24T02:01:20;21.20;70.40
32600;DHT22;19277;51.778;7.912;2023-04-24T02:03:46;21.20;70.30
32600;DHT22;19277;51.778;7.912;2023-04-24T02:06:12;21.20;70.30
32600;DHT22;19277;51.778;7.912;2023-04-24T02:08:37;21.20;70.30
32600;DHT22;19277;51.778;7.912;2023-04-24T02:11:03;21.20;70.30
32600;DHT22;19277;51.778;7.912;2023-04-24T02:13:28;21.20;70.40
32600;DHT22;19277;51.778;7.912;2023-04-24T02:15:54;21.30;70.50
32600;DHT22;19277;51.778;7.912;2023-04-24T02:18:20;21.20;70.30
32600;DHT22;19277;51.778;7.912;2023-04-24T02:20:46;21.20;70.40
32600;DHT22;19277;51.778;7.912;2023-04-24T02:23:11;21.30;70.40
32600;DHT22;19277;51.778;7.912;2023-04-24T02:25:38;21.30;70.50
32600;DHT22;19277;51.778;7.912;2023-04-24T02:28:04;21.30;70.50
32600;DHT22;19277;51.778;7.912;2023-04-24T02:30:29;21.30;70.50
32600;DHT22;19277;51.778;7.912;2023-04-24T02:32:55;21.30;70.40
32600;DHT22;19277;51.778;7.912;2023-04-24T02:35:21;21.30;70.50
32600;DHT22;19277;51.778;7.912;2023-04-24T02:37:47;21.30;70.50
32600;DHT22;19277;51.778;7.912;2023-04-24T02:40:12;21.30;70.50
32600;DHT22;19277;51.778;7.912;2023-04-24T02:42:38;21.30;70.50
32600;DHT22;19277;51.778;7.912;2023-04-24T02:45:04;21.30;70.50
32600;DHT22;19277;51.778;7.912;2023-04-24T02:47:30;21.30;70.50
32600;DHT22;19277;51.778;7.912;2023-04-24T02:49:56;21.40;70.60
32600;DHT22;19277;51.778;7.912;2023-04-24T02:52:21;21.40;70.60
32600;DHT22;19277;51.778;7.912;2023-04-24T02:54:47;21.40;70.60
32600;DHT22;19277;51.778;7.912;2023-04-24T02:57:12;21.40;70.60
32600;DHT22;19277;51.778;7.912;2023-04-24T02:59:38;21.40;70.60
32600;DHT22;19277;51.778;7.912;2023-04-24T03:02:03;21.40;70.70
32600;DHT22;19277;51.778;7.912;2023-04-24T03:04:29;21.40;70.90
32600;DHT22;19277;51.778;7.912;2023-04-24T03:06:55;21.40;70.90
32600;DHT22;19277;51.778;7.912;2023-04-24T03:09:21;21.40;70.80
32600;DHT22;19277;51.778;7.912;2023-04-24T03:11:46;21.40;70.80
32600;DHT22;19277;51.778;7.912;2023-04-24T03:14:13;21.40;70.80
32600;DHT22;19277;51.778;7.912;2023-04-24T03:16:39;21.40;70.80
32600;DHT22;19277;51.778;7.912;2023-04-24T03:19:04;21.40;70.80
32600;DHT22;19277;51.778;7.912;2023-04-24T03:21:30;21.40;70.80
32600;DHT22;19277;51.778;7.912;2023-04-24T03:23:56;21.40;70.90
32600;DHT22;19277;51.778;7.912;2023-04-24T03:26:21;21.40;71.10
32600;DHT22;19277;51.778;7.912;2023-04-24T03:28:47;21.40;71.00
32600;DHT22;19277;51.778;7.912;2023-04-24T03:31:12;21.40;71.10
32600;DHT22;19277;51.778;7.912;2023-04-24T03:33:38;21.40;71.30
32600;DHT22;19277;51.778;7.912;2023-04-24T03:36:03;21.40;71.40
32600;DHT22;19277;51.778;7.912;2023-04-24T03:38:30;21.40;71.40
32600;DHT22;19277;51.778;7.912;2023-04-24T03:40:55;21.40;71.40
32600;DHT22;19277;51.778;7.912;2023-04-24T03:43:21;21.40;71.50
32600;DHT22;19277;51.778;7.912;2023-04-24T03:45:47;21.40;71.50
32600;DHT22;19277;51.778;7.912;2023-04-24T03:48:12;21.40;71.60
32600;DHT22;19277;51.778;7.912;2023-04-24T03:50:38;21.40;71.70
32600;DHT22;19277;51.778;7.912;2023-04-24T03:53:03;21.40;71.70
32600;DHT22;19277;51.778;7.912;2023-04-24T03:55:29;21.40;71.80
32600;DHT22;19277;51.778;7.912;2023-04-24T03:57:55;21.40;71.80
32600;DHT22;19277;51.778;7.912;2023-04-24T04:00:20;21.40;71.80
32600;DHT22;19277;51.778;7.912;2023-04-24T04:02:46;21.40;71.90
32600;DHT22;19277;51.778;7.912;2023-04-24T04:05:12;21.40;71.90
32600;DHT22;19277;51.778;7.912;2023-04-24T04:07:37;21.40;72.00
32600;DHT22;19277;51.778;7.912;2023-04-24T04:10:03;21.40;72.20
32600;DHT22;19277;51.778;7.912;2023-04-24T04:12:29;21.40;72.20
32600;DHT22;19277;51.778;7.912;2023-04-24T04:14:55;21.40;72.20
32600;DHT22;19277;51.778;7.912;2023-04-24T04:17:20;21.40;72.30
32600;DHT22;19277;51.778;7.912;2023-04-24T04:19:46;21.40;72.40
32600;DHT22;19277;51.778;7.912;2023-04-24T04:22:12;21.40;72.40
32600;DHT22;19277;51.778;7.912;2023-04-24T04:24:37;21.40;72.50
32600;DHT22;19277;51.778;7.912;2023-04-24T04:27:03;21.40;72.50
32600;DHT22;19277;51.778;7.912;2023-04-24T04:29:30;21.40;72.60
32600;DHT22;19277;51.778;7.912;2023-04-24T04:31:56;21.40;72.70
32600;DHT22;19277;51.778;7.912;2023-04-24T04:34:22;21.40;72.50
32600;DHT22;19277;51.778;7.912;2023-04-24T04:36:48;21.40;72.50
32600;DHT22;19277;51.778;7.912;2023-04-24T04:39:14;21.40;72.50
32600;DHT22;19277;51.778;7.912;2023-04-24T04:41:40;21.50;72.50
32600;DHT22;19277;51.778;7.912;2023-04-24T04:44:06;21.50;72.60
32600;DHT22;19277;51.778;7.912;2023-04-24T04:46:34;21.50;72.40
32600;DHT22;19277;51.778;7.912;2023-04-24T04:49:00;21.50;72.60
32600;DHT22;19277;51.778;7.912;2023-04-24T04:51:26;21.50;72.80
32600;DHT22;19277;51.778;7.912;2023-04-24T04:53:52;21.50;72.80
32600;DHT22;19277;51.778;7.912;2023-04-24T04:56:18;21.50;72.80
32600;DHT22;19277;51.778;7.912;2023-04-24T04:58:43;21.50;72.90
32600;DHT22;19277;51.778;7.912;2023-04-24T05:01:09;21.50;73.00
32600;DHT22;19277;51.778;7.912;2023-04-24T05:03:35;21.50;73.10
32600;DHT22;19277;51.778;7.912;2023-04-24T05:06:01;21.50;73.30
32600;DHT22;19277;51.778;7.912;2023-04-24T05:08:27;21.50;73.40
32600;DHT22;19277;51.778;7.912;2023-04-24T05:10:53;21.50;73.40
32600;DHT22;19277;51.778;7.912;2023-04-24T05:13:19;21.50;73.50
32600;DHT22;19277;51.778;7.912;2023-04-24T05:15:45;21.50;73.50
32600;DHT22;19277;51.778;7.912;2023-04-24T05:18:10;21.50;73.50
32600;DHT22;19277;51.778;7.912;2023-04-24T05:20:37;21.50;73.70
32600;DHT22;19277;51.778;7.912;2023-04-24T05:23:03;21.50;73.80
32600;DHT22;19277;51.778;7.912;2023-04-24T05:25:29;21.50;74.00
32600;DHT22;19277;51.778;7.912;2023-04-24T05:27:57;21.60;74.00
32600;DHT22;19277;51.778;7.912;2023-04-24T05:30:23;21.50;73.60
32600;DHT22;19277;51.778;7.912;2023-04-24T05:32:48;21.60;73.60
32600;DHT22;19277;51.778;7.912;2023-04-24T05:35:14;21.60;73.40
32600;DHT22;19277;51.778;7.912;2023-04-24T05:37:39;21.60;73.60
32600;DHT22;19277;51.778;7.912;2023-04-24T05:40:05;21.60;73.50
32600;DHT22;19277;51.778;7.912;2023-04-24T05:42:31;21.60;73.60
32600;DHT22;19277;51.778;7.912;2023-04-24T05:44:57;21.70;73.40
32600;DHT22;19277;51.778;7.912;2023-04-24T05:47:23;21.70;73.50
32600;DHT22;19277;51.778;7.912;2023-04-24T05:49:48;21.60;73.20
32600;DHT22;19277;51.778;7.912;2023-04-24T05:52:14;21.70;73.30
32600;DHT22;19277;51.778;7.912;2023-04-24T05:54:39;21.70;73.10
32600;DHT22;19277;51.778;7.912;2023-04-24T05:57:05;21.70;73.10
32600;DHT22;19277;51.778;7.912;2023-04-24T05:59:42;21.70;73.00
32600;DHT22;19277;51.778;7.912;2023-04-24T06:02:07;21.70;72.90
32600;DHT22;19277;51.778;7.912;2023-04-24T06:04:33;21.70;72.90
32600;DHT22;19277;51.778;7.912;2023-04-24T06:06:59;21.70;73.10
32600;DHT22;19277;51.778;7.912;2023-04-24T06:09:25;21.80;73.70
32600;DHT22;19277;51.778;7.912;2023-04-24T06:11:51;21.80;73.70
32600;DHT22;19277;51.778;7.912;2023-04-24T06:14:20;21.80;73.50
32600;DHT22;19277;51.778;7.912;2023-04-24T06:16:46;21.80;73.90
32600;DHT22;19277;51.778;7.912;2023-04-24T06:19:11;21.80;74.40
32600;DHT22;19277;51.778;7.912;2023-04-24T06:21:37;21.90;75.00
32600;DHT22;19277;51.778;7.912;2023-04-24T06:24:03;21.90;74.90
32600;DHT22;19277;51.778;7.912;2023-04-24T06:26:29;21.90;74.50
32600;DHT22;19277;51.778;7.912;2023-04-24T06:28:55;21.90;74.20
32600;DHT22;19277;51.778;7.912;2023-04-24T06:31:21;21.90;73.70
32600;DHT22;19277;51.778;7.912;2023-04-24T06:33:48;21.90;73.50
32600;DHT22;19277;51.778;7.912;2023-04-24T06:36:14;21.80;73.60
32600;DHT22;19277;51.778;7.912;2023-04-24T06:38:41;21.80;73.00
32600;DHT22;19277;51.778;7.912;2023-04-24T06:41:07;21.80;72.70
32600;DHT22;19277;51.778;7.912;2023-04-24T06:43:32;21.80;72.60
32600;DHT22;19277;51.778;7.912;2023-04-24T06:45:59;21.80;72.40
32600;DHT22;19277;51.778;7.912;2023-04-24T06:48:25;21.80;72.20
32600;DHT22;19277;51.778;7.912;2023-04-24T06:50:51;21.80;72.10
32600;DHT22;19277;51.778;7.912;2023-04-24T06:53:17;21.80;72.00
32600;DHT22;19277;51.778;7.912;2023-04-24T06:55:43;21.10;57.30
32600;DHT22;19277;51.778;7.912;2023-04-24T06:58:10;19.50;58.80
32600;DHT22;19277;51.778;7.912;2023-04-24T07:00:36;18.20;62.40
32600;DHT22;19277;51.778;7.912;2023-04-24T07:03:02;17.60;64.60
32600;DHT22;19277;51.778;7.912;2023-04-24T07:05:28;16.80;66.60
32600;DHT22;19277;51.778;7.912;2023-04-24T07:07:54;16.50;67.60
32600;DHT22;19277;51.778;7.912;2023-04-24T07:10:20;16.20;68.90
32600;DHT22;19277;51.778;7.912;2023-04-24T07:12:46;15.80;69.50
32600;DHT22;19277;51.778;7.912;2023-04-24T07:15:12;15.40;69.60
32600;DHT22;19277;51.778;7.912;2023-04-24T07:17:38;15.50;70.50
32600;DHT22;19277;51.778;7.912;2023-04-24T07:20:04;15.60;69.70
32600;DHT22;19277;51.778;7.912;2023-04-24T07:22:30;15.50;70.30
32600;DHT22;19277;51.778;7.912;2023-04-24T07:24:56;15.10;70.70
32600;DHT22;19277;51.778;7.912;2023-04-24T07:27:22;15.20;70.90
32600;DHT22;19277;51.778;7.912;2023-04-24T07:29:47;15.10;70.30
32600;DHT22;19277;51.778;7.912;2023-04-24T07:32:13;15.00;70.60
32600;DHT22;19277;51.778;7.912;2023-04-24T07:34:39;14.80;70.90
32600;DHT22;19277;51.778;7.912;2023-04-24T07:37:04;15.00;73.20
32600;DHT22;19277;51.778;7.912;2023-04-24T07:39:30;15.60;76.40
32600;DHT22;19277;51.778;7.912;2023-04-24T07:41:56;16.20;75.90
32600;DHT22;19277;51.778;7.912;2023-04-24T07:44:21;17.00;74.90
32600;DHT22;19277;51.778;7.912;2023-04-24T07:46:47;17.60;73.40
32600;DHT22;19277;51.778;7.912;2023-04-24T07:49:13;18.20;72.20
32600;DHT22;19277;51.778;7.912;2023-04-24T07:51:39;18.70;71.20
32600;DHT22;19277;51.778;7.912;2023-04-24T07:54:05;19.10;70.40
32600;DHT22;19277;51.778;7.912;2023-04-24T07:56:33;19.40;69.60
32600;DHT22;19277;51.778;7.912;2023-04-24T07:58:59;19.80;69.20
32600;DHT22;19277;51.778;7.912;2023-04-24T08:01:26;20.00;68.70
32600;DHT22;19277;51.778;7.912;2023-04-24T08:03:52;20.20;68.50
32600;DHT22;19277;51.778;7.912;2023-04-24T08:06:17;20.30;68.20
32600;DHT22;19277;51.778;7.912;2023-04-24T08:08:43;20.40;68.20
32600;DHT22;19277;51.778;7.912;2023-04-24T08:11:09;20.50;68.10
32600;DHT22;19277;51.778;7.912;2023-04-24T08:13:34;20.60;68.10
32600;DHT22;19277;51.778;7.912;2023-04-24T08:16:00;20.70;68.00
32600;DHT22;19277;51.778;7.912;2023-04-24T08:18:26;20.70;68.10
32600;DHT22;19277;51.778;7.912;2023-04-24T08:20:51;20.80;68.20
32600;DHT22;19277;51.778;7.912;2023-04-24T08:23:17;20.90;68.30
32600;DHT22;19277;51.778;7.912;2023-04-24T08:25:42;21.00;68.40
32600;DHT22;19277;51.778;7.912;2023-04-24T08:28:09;21.10;68.50
32600;DHT22;19277;51.778;7.912;2023-04-24T08:30:36;21.10;68.40
32600;DHT22;19277;51.778;7.912;2023-04-24T08:33:01;21.30;68.20
32600;DHT22;19277;51.778;7.912;2023-04-24T08:35:27;21.40;68.10
32600;DHT22;19277;51.778;7.912;2023-04-24T08:37:53;21.50;67.90
32600;DHT22;19277;51.778;7.912;2023-04-24T08:40:23;21.50;67.60
32600;DHT22;19277;51.778;7.912;2023-04-24T08:42:54;21.60;67.60
32600;DHT22;19277;51.778;7.912;2023-04-24T08:45:21;21.60;67.60
32600;DHT22;19277;51.778;7.912;2023-04-24T08:47:47;21.60;67.60
32600;DHT22;19277;51.778;7.912;2023-04-24T08:50:13;21.60;67.70
32600;DHT22;19277;51.778;7.912;2023-04-24T08:52:38;21.60;67.80
32600;DHT22;19277;51.778;7.912;2023-04-24T08:55:05;21.60;67.90
32600;DHT22;19277;51.778;7.912;2023-04-24T08:57:31;21.70;68.10
32600;DHT22;19277;51.778;7.912;2023-04-24T08:59:58;21.70;68.30
32600;DHT22;19277;51.778;7.912;2023-04-24T09:02:23;21.70;68.40
32600;DHT22;19277;51.778;7.912;2023-04-24T09:04:50;21.70;68.30
32600;DHT22;19277;51.778;7.912;2023-04-24T09:07:16;21.80;68.20
32600;DHT22;19277;51.778;7.912;2023-04-24T09:09:43;21.80;68.10
32600;DHT22;19277;51.778;7.912;2023-04-24T09:12:09;21.90;68.00
32600;DHT22;19277;51.778;7.912;2023-04-24T09:14:36;21.90;67.90
32600;DHT22;19277;51.778;7.912;2023-04-24T09:17:05;21.90;68.00
32600;DHT22;19277;51.778;7.912;2023-04-24T09:19:31;21.90;68.10
32600;DHT22;19277;51.778;7.912;2023-04-24T09:21:57;21.90;68.60
32600;DHT22;19277;51.778;7.912;2023-04-24T09:24:22;21.90;68.10
32600;DHT22;19277;51.778;7.912;2023-04-24T09:26:49;21.90;68.20
32600;DHT22;19277;51.778;7.912;2023-04-24T09:29:21;22.00;68.20
32600;DHT22;19277;51.778;7.912;2023-04-24T09:31:46;21.90;68.20
32600;DHT22;19277;51.778;7.912;2023-04-24T09:34:12;21.90;68.20
32600;DHT22;19277;51.778;7.912;2023-04-24T09:36:40;21.90;68.30
32600;DHT22;19277;51.778;7.912;2023-04-24T09:39:12;21.90;68.40
32600;DHT22;19277;51.778;7.912;2023-04-24T09:44:16;21.80;68.50
32600;DHT22;19277;51.778;7.912;2023-04-24T09:46:44;21.80;68.60
32600;DHT22;19277;51.778;7.912;2023-04-24T09:49:13;21.80;68.70
32600;DHT22;19277;51.778;7.912;2023-04-24T09:51:40;21.80;68.70
32600;DHT22;19277;51.778;7.912;2023-04-24T09:54:20;21.80;68.70
32600;DHT22;19277;51.778;7.912;2023-04-24T09:56:50;21.90;68.70
32600;DHT22;19277;51.778;7.912;2023-04-24T09:59:18;21.90;68.60
32600;DHT22;19277;51.778;7.912;2023-04-24T10:01:44;22.00;68.50
32600;DHT22;19277;51.778;7.912;2023-04-24T10:04:25;22.00;68.30
32600;DHT22;19277;51.778;7.912;2023-04-24T10:06:53;22.10;68.20
32600;DHT22;19277;51.778;7.912;2023-04-24T10:09:25;22.10;68.10
32600;DHT22;19277;51.778;7.912;2023-04-24T10:11:52;22.20;68.00
32600;DHT22;19277;51.778;7.912;2023-04-24T10:14:21;22.20;67.90
32600;DHT22;19277;51.778;7.912;2023-04-24T10:16:47;22.20;67.70
32600;DHT22;19277;51.778;7.912;2023-04-24T10:19:14;22.20;67.60
32600;DHT22;19277;51.778;7.912;2023-04-24T10:21:42;22.20;67.60
32600;DHT22;19277;51.778;7.912;2023-04-24T10:24:12;22.20;67.60
32600;DHT22;19277;51.778;7.912;2023-04-24T10:26:38;22.20;67.30
32600;DHT22;19277;51.778;7.912;2023-04-24T10:29:05;22.30;67.10
32600;DHT22;19277;51.778;7.912;2023-04-24T10:31:36;22.40;67.00
32600;DHT22;19277;51.778;7.912;2023-04-24T10:34:02;22.40;66.80
32600;DHT22;19277;51.778;7.912;2023-04-24T10:36:29;22.40;66.60
32600;DHT22;19277;51.778;7.912;2023-04-24T10:38:59;22.50;66.50
32600;DHT22;19277;51.778;7.912;2023-04-24T10:41:26;22.60;66.50
32600;DHT22;19277;51.778;7.912;2023-04-24T10:46:34;22.70;66.30
32600;DHT22;19277;51.778;7.912;2023-04-24T10:49:03;22.70;66.30
32600;DHT22;19277;51.778;7.912;2023-04-24T10:51:49;22.70;66.50
32600;DHT22;19277;51.778;7.912;2023-04-24T10:54:46;22.60;66.70
32600;DHT22;19277;51.778;7.912;2023-04-24T10:59:49;22.50;67.00
32600;DHT22;19277;51.778;7.912;2023-04-24T11:02:16;22.40;67.40
32600;DHT22;19277;51.778;7.912;2023-04-24T11:04:41;22.40;67.70
32600;DHT22;19277;51.778;7.912;2023-04-24T11:07:11;22.30;67.90
32600;DHT22;19277;51.778;7.912;2023-04-24T11:09:37;22.30;68.10
32600;DHT22;19277;51.778;7.912;2023-04-24T11:12:09;22.30;68.10
32600;DHT22;19277;51.778;7.912;2023-04-24T11:17:31;22.40;68.10
32600;DHT22;19277;51.778;7.912;2023-04-24T11:20:18;22.40;68.10
32600;DHT22;19277;51.778;7.912;2023-04-24T11:22:43;22.40;68.10
32600;DHT22;19277;51.778;7.912;2023-04-24T11:25:09;22.40;68.10
32600;DHT22;19277;51.778;7.912;2023-04-24T11:27:42;22.40;68.20
32600;DHT22;19277;51.778;7.912;2023-04-24T11:30:08;22.40;68.20
32600;DHT22;19277;51.778;7.912;2023-04-24T11:32:48;22.40;68.40
32600;DHT22;19277;51.778;7.912;2023-04-24T11:35:17;22.40;68.50
32600;DHT22;19277;51.778;7.912;2023-04-24T11:37:45;22.40;68.60
32600;DHT22;19277;51.778;7.912;2023-04-24T11:40:21;22.40;68.70
32600;DHT22;19277;51.778;7.912;2023-04-24T11:42:52;21.70;60.50
32600;DHT22;19277;51.778;7.912;2023-04-24T11:45:23;19.30;63.80
32600;DHT22;19277;51.778;7.912;2023-04-24T11:47:49;17.90;67.70
32600;DHT22;19277;51.778;7.912;2023-04-24T11:50:16;16.60;71.10
32600;DHT22;19277;51.778;7.912;2023-04-24T11:52:44;15.60;75.70
32600;DHT22;19277;51.778;7.912;2023-04-24T11:57:53;15.60;74.50
32600;DHT22;19277;51.778;7.912;2023-04-24T12:00:21;15.40;74.20
32600;DHT22;19277;51.778;7.912;2023-04-24T12:02:47;15.20;76.30
32600;DHT22;19277;51.778;7.912;2023-04-24T12:05:25;15.20;75.40
32600;DHT22;19277;51.778;7.912;2023-04-24T12:07:51;15.00;76.20
32600;DHT22;19277;51.778;7.912;2023-04-24T12:10:24;15.00;75.90
32600;DHT22;19277;51.778;7.912;2023-04-24T12:12:51;15.20;75.00
32600;DHT22;19277;51.778;7.912;2023-04-24T12:15:19;14.90;76.10
32600;DHT22;19277;51.778;7.912;2023-04-24T12:17:45;14.80;75.40
32600;DHT22;19277;51.778;7.912;2023-04-24T12:20:11;14.60;77.00
32600;DHT22;19277;51.778;7.912;2023-04-24T12:22:50;14.50;78.30
32600;DHT22;19277;51.778;7.912;2023-04-24T12:25:17;14.60;78.10
32600;DHT22;19277;51.778;7.912;2023-04-24T12:27:44;14.60;78.40
32600;DHT22;19277;51.778;7.912;2023-04-24T12:30:15;14.50;78.20
32600;DHT22;19277;51.778;7.912;2023-04-24T12:32:46;14.40;79.70
32600;DHT22;19277;51.778;7.912;2023-04-24T12:35:12;14.20;79.20
32600;DHT22;19277;51.778;7.912;2023-04-24T12:37:38;14.30;80.10
32600;DHT22;19277;51.778;7.912;2023-04-24T12:40:09;14.20;79.40
32600;DHT22;19277;51.778;7.912;2023-04-24T12:42:41;14.10;80.50
32600;DHT22;19277;51.778;7.912;2023-04-24T12:45:07;14.20;80.30
32600;DHT22;19277;51.778;7.912;2023-04-24T12:47:34;14.30;80.00
32600;DHT22;19277;51.778;7.912;2023-04-24T12:50:01;14.30;80.60
32600;DHT22;19277;51.778;7.912;2023-04-24T12:52:27;14.30;82.20
32600;DHT22;19277;51.778;7.912;2023-04-24T12:54:56;15.10;81.50
32600;DHT22;19277;51.778;7.912;2023-04-24T12:57:22;16.00;79.20
32600;DHT22;19277;51.778;7.912;2023-04-24T12:59:48;16.90;76.80
32600;DHT22;19277;51.778;7.912;2023-04-24T13:02:14;17.70;74.70
32600;DHT22;19277;51.778;7.912;2023-04-24T13:04:46;18.30;72.90
32600;DHT22;19277;51.778;7.912;2023-04-24T13:07:15;18.70;71.60
32600;DHT22;19277;51.778;7.912;2023-04-24T13:09:41;19.10;70.60
32600;DHT22;19277;51.778;7.912;2023-04-24T13:12:07;19.50;69.90
32600;DHT22;19277;51.778;7.912;2023-04-24T13:14:33;19.80;69.30
32600;DHT22;19277;51.778;7.912;2023-04-24T13:16:59;20.00;68.80
32600;DHT22;19277;51.778;7.912;2023-04-24T13:19:25;20.10;68.50
32600;DHT22;19277;51.778;7.912;2023-04-24T13:21:52;20.20;68.40
32600;DHT22;19277;51.778;7.912;2023-04-24T13:24:17;20.30;68.30
32600;DHT22;19277;51.778;7.912;2023-04-24T13:26:43;20.30;68.30
32600;DHT22;19277;51.778;7.912;2023-04-24T13:29:09;20.40;68.50
32600;DHT22;19277;51.778;7.912;2023-04-24T13:31:34;20.40;68.70
32600;DHT22;19277;51.778;7.912;2023-04-24T13:34:01;20.40;68.80
32600;DHT22;19277;51.778;7.912;2023-04-24T13:36:27;20.50;68.80
32600;DHT22;19277;51.778;7.912;2023-04-24T13:38:52;20.50;68.80
32600;DHT22;19277;51.778;7.912;2023-04-24T13:41:18;20.60;68.80
32600;DHT22;19277;51.778;7.912;2023-04-24T13:43:43;20.60;68.70
32600;DHT22;19277;51.778;7.912;2023-04-24T13:46:09;20.70;68.70
32600;DHT22;19277;51.778;7.912;2023-04-24T13:48:34;20.80;68.60
32600;DHT22;19277;51.778;7.912;2023-04-24T13:51:00;20.90;68.60
32600;DHT22;19277;51.778;7.912;2023-04-24T13:53:26;21.00;68.40
32600;DHT22;19277;51.778;7.912;2023-04-24T13:55:51;21.10;68.20
32600;DHT22;19277;51.778;7.912;2023-04-24T13:58:17;21.10;68.10
32600;DHT22;19277;51.778;7.912;2023-04-24T14:00:42;21.20;68.00
32600;DHT22;19277;51.778;7.912;2023-04-24T14:03:08;21.30;67.90
32600;DHT22;19277;51.778;7.912;2023-04-24T14:05:34;21.30;67.90
32600;DHT22;19277;51.778;7.912;2023-04-24T14:07:59;21.30;67.90
32600;DHT22;19277;51.778;7.912;2023-04-24T14:10:25;21.40;67.90
32600;DHT22;19277;51.778;7.912;2023-04-24T14:12:52;21.40;67.90
32600;DHT22;19277;51.778;7.912;2023-04-24T14:15:18;21.50;67.90
32600;DHT22;19277;51.778;7.912;2023-04-24T14:17:44;21.50;67.80
32600;DHT22;19277;51.778;7.912;2023-04-24T14:20:12;21.60;67.80
32600;DHT22;19277;51.778;7.912;2023-04-24T14:22:38;21.60;67.80
32600;DHT22;19277;51.778;7.912;2023-04-24T14:25:04;21.60;67.70
32600;DHT22;19277;51.778;7.912;2023-04-24T14:27:31;21.60;67.80
32600;DHT22;19277;51.778;7.912;2023-04-24T14:29:57;21.50;67.90
32600;DHT22;19277;51.778;7.912;2023-04-24T14:32:23;21.50;68.00
32600;DHT22;19277;51.778;7.912;2023-04-24T14:34:48;21.50;68.30
32600;DHT22;19277;51.778;7.912;2023-04-24T14:37:14;21.40;68.40
32600;DHT22;19277;51.778;7.912;2023-04-24T14:39:39;21.40;68.60
32600;DHT22;19277;51.778;7.912;2023-04-24T14:42:05;21.40;68.70
32600;DHT22;19277;51.778;7.912;2023-04-24T14:44:31;21.40;68.80
32600;DHT22;19277;51.778;7.912;2023-04-24T14:46:58;21.50;68.80
32600;DHT22;19277;51.778;7.912;2023-04-24T14:49:24;21.50;68.80
32600;DHT22;19277;51.778;7.912;2023-04-24T14:51:49;21.50;68.70
32600;DHT22;19277;51.778;7.912;2023-04-24T14:54:15;21.50;68.70
32600;DHT22;19277;51.778;7.912;2023-04-24T14:56:41;21.60;68.80
32600;DHT22;19277;51.778;7.912;2023-04-24T14:59:08;21.60;68.70
32600;DHT22;19277;51.778;7.912;2023-04-24T15:01:33;21.70;68.60
32600;DHT22;19277;51.778;7.912;2023-04-24T15:03:59;21.70;68.50
32600;DHT22;19277;51.778;7.912;2023-04-24T15:06:25;21.80;68.40
32600;DHT22;19277;51.778;7.912;2023-04-24T15:08:50;21.80;68.40
32600;DHT22;19277;51.778;7.912;2023-04-24T15:11:16;21.80;68.40
32600;DHT22;19277;51.778;7.912;2023-04-24T15:13:42;21.80;68.40
32600;DHT22;19277;51.778;7.912;2023-04-24T15:16:07;21.80;68.50
32600;DHT22;19277;51.778;7.912;2023-04-24T15:18:33;21.80;68.50
32600;DHT22;19277;51.778;7.912;2023-04-24T15:20:58;21.80;68.50
32600;DHT22;19277;51.778;7.912;2023-04-24T15:23:24;21.90;68.60
32600;DHT22;19277;51.778;7.912;2023-04-24T15:25:49;21.90;68.50
32600;DHT22;19277;51.778;7.912;2023-04-24T15:28:15;22.00;68.60
32600;DHT22;19277;51.778;7.912;2023-04-24T15:30:41;22.00;68.50
32600;DHT22;19277;51.778;7.912;2023-04-24T15:33:07;22.00;68.50
32600;DHT22;19277;51.778;7.912;2023-04-24T15:35:33;22.00;68.40
32600;DHT22;19277;51.778;7.912;2023-04-24T15:37:59;22.10;68.50
32600;DHT22;19277;51.778;7.912;2023-04-24T15:40:25;22.00;68.40